sensor_id;sensor_type;location;lat;lon;timestamp;P1;durP1;ratioP1;P2;durP2;ratioP2
37341;SDS011;58643;49.052;8.518;2022-07-29T00:01:40;5.13;;;3.85;;
37341;SDS011;58643;49.052;8.518;2022-07-29T00:04:06;7.50;;;3.88;;
37341;SDS011;58643;49.052;8.518;2022-07-29T00:06:32;4.93;;;3.63;;
37341;SDS011;58643;49.052;8.518;2022-07-29T00:08:57;6.57;;;3.80;;
37341;SDS011;58643;49.052;8.518;2022-07-29T00:11:23;4.43;;;3.85;;
37341;SDS011;58643;49.052;8.518;2022-07-29T00:13:48;5.72;;;3.78;;
37341;SDS011;58643;49.052;8.518;2022-07-29T00:16:14;5.32;;;4.03;;
37341;SDS011;58643;49.052;8.518;2022-07-29T00:18:40;7.70;;;3.97;;
37341;SDS011;58643;49.052;8.518;2022-07-29T00:21:05;5.05;;;3.97;;
37341;SDS011;58643;49.052;8.518;2022-07-29T00:23:31;5.20;;;3.72;;
37341;SDS011;58643;49.052;8.518;2022-07-29T00:25:56;8.43;;;4.35;;
37341;SDS011;58643;49.052;8.518;2022-07-29T00:28:22;6.93;;;4.30;;
37341;SDS011;58643;49.052;8.518;2022-07-29T00:30:47;6.28;;;4.18;;
37341;SDS011;58643;49.052;8.518;2022-07-29T00:33:13;7.63;;;4.45;;
37341;SDS011;58643;49.052;8.518;2022-07-29T00:35:39;7.40;;;3.97;;
37341;SDS011;58643;49.052;8.518;2022-07-29T00:38:14;8.18;;;4.80;;
37341;SDS011;58643;49.052;8.518;2022-07-29T00:40:41;6.57;;;4.05;;
37341;SDS011;58643;49.052;8.518;2022-07-29T00:43:07;5.57;;;4.18;;
37341;SDS011;58643;49.052;8.518;2022-07-29T00:45:33;7.60;;;4.78;;
37341;SDS011;58643;49.052;8.518;2022-07-29T00:47:58;5.82;;;3.95;;
37341;SDS011;58643;49.052;8.518;2022-07-29T00:50:24;7.43;;;4.97;;
37341;SDS011;58643;49.052;8.518;2022-07-29T00:52:51;6.18;;;3.85;;
37341;SDS011;58643;49.052;8.518;2022-07-29T00:55:17;7.50;;;4.72;;
37341;SDS011;58643;49.052;8.518;2022-07-29T00:57:43;9.57;;;4.53;;
37341;SDS011;58643;49.052;8.518;2022-07-29T01:00:13;7.82;;;4.22;;
37341;SDS011;58643;49.052;8.518;2022-07-29T01:02:42;6.97;;;4.30;;
37341;SDS011;58643;49.052;8.518;2022-07-29T01:05:08;5.40;;;3.97;;
37341;SDS011;58643;49.052;8.518;2022-07-29T01:07:35;7.90;;;4.45;;
37341;SDS011;58643;49.052;8.518;2022-07-29T01:10:05;6.43;;;4.10;;
37341;SDS011;58643;49.052;8.518;2022-07-29T01:12:32;5.45;;;3.92;;
37341;SDS011;58643;49.052;8.518;2022-07-29T01:14:59;9.13;;;3.63;;
37341;SDS011;58643;49.052;8.518;2022-07-29T01:17:39;5.68;;;3.65;;
37341;SDS011;58643;49.052;8.518;2022-07-29T01:31:00;6.47;;;4.10;;
37341;SDS011;58643;49.052;8.518;2022-07-29T01:33:30;6.55;;;4.35;;
37341;SDS011;58643;49.052;8.518;2022-07-29T01:36:14;6.85;;;4.20;;
37341;SDS011;58643;49.052;8.518;2022-07-29T01:38:48;6.97;;;4.35;;
37341;SDS011;58643;49.052;8.518;2022-07-29T01:41:23;5.75;;;4.32;;
37341;SDS011;58643;49.052;8.518;2022-07-29T01:43:53;5.90;;;4.07;;
37341;SDS011;58643;49.052;8.518;2022-07-29T01:46:47;7.95;;;4.57;;
37341;SDS011;58643;49.052;8.518;2022-07-29T01:49:17;7.95;;;4.28;;
37341;SDS011;58643;49.052;8.518;2022-07-29T01:51:54;8.88;;;4.70;;
37341;SDS011;58643;49.052;8.518;2022-07-29T01:54:35;6.93;;;4.53;;
37341;SDS011;58643;49.052;8.518;2022-07-29T01:59:34;5.65;;;4.07;;
37341;SDS011;58643;49.052;8.518;2022-07-29T02:02:01;7.90;;;4.68;;
37341;SDS011;58643;49.052;8.518;2022-07-29T02:04:27;5.55;;;4.40;;
37341;SDS011;58643;49.052;8.518;2022-07-29T02:06:55;5.13;;;3.90;;
37341;SDS011;58643;49.052;8.518;2022-07-29T02:09:25;8.52;;;4.63;;
37341;SDS011;58643;49.052;8.518;2022-07-29T02:11:52;8.05;;;4.40;;
37341;SDS011;58643;49.052;8.518;2022-07-29T02:14:20;7.78;;;4.30;;
37341;SDS011;58643;49.052;8.518;2022-07-29T02:16:48;8.43;;;4.53;;
37341;SDS011;58643;49.052;8.518;2022-07-29T02:19:17;7.57;;;4.68;;
37341;SDS011;58643;49.052;8.518;2022-07-29T02:21:45;6.53;;;4.47;;
37341;SDS011;58643;49.052;8.518;2022-07-29T02:24:11;6.25;;;4.30;;
37341;SDS011;58643;49.052;8.518;2022-07-29T02:26:39;5.03;;;4.32;;
37341;SDS011;58643;49.052;8.518;2022-07-29T02:29:08;6.20;;;4.43;;
37341;SDS011;58643;49.052;8.518;2022-07-29T02:31:35;7.72;;;4.05;;
37341;SDS011;58643;49.052;8.518;2022-07-29T02:34:03;8.60;;;5.00;;
37341;SDS011;58643;49.052;8.518;2022-07-29T02:36:32;6.60;;;4.47;;
37341;SDS011;58643;49.052;8.518;2022-07-29T02:38:59;5.75;;;4.43;;
37341;SDS011;58643;49.052;8.518;2022-07-29T02:41:28;5.47;;;4.25;;
37341;SDS011;58643;49.052;8.518;2022-07-29T02:44:06;6.83;;;4.17;;
37341;SDS011;58643;49.052;8.518;2022-07-29T02:49:46;8.35;;;4.88;;
37341;SDS011;58643;49.052;8.518;2022-07-29T02:52:24;6.40;;;4.75;;
37341;SDS011;58643;49.052;8.518;2022-07-29T02:54:56;7.45;;;4.40;;
37341;SDS011;58643;49.052;8.518;2022-07-29T03:00:08;6.97;;;4.00;;
37341;SDS011;58643;49.052;8.518;2022-07-29T03:02:39;10.82;;;4.78;;
37341;SDS011;58643;49.052;8.518;2022-07-29T03:05:08;7.43;;;4.43;;
37341;SDS011;58643;49.052;8.518;2022-07-29T03:07:37;8.43;;;4.28;;
37341;SDS011;58643;49.052;8.518;2022-07-29T03:10:06;6.80;;;4.88;;
37341;SDS011;58643;49.052;8.518;2022-07-29T03:12:33;7.20;;;4.65;;
37341;SDS011;58643;49.052;8.518;2022-07-29T03:15:00;5.72;;;4.57;;
37341;SDS011;58643;49.052;8.518;2022-07-29T03:17:27;6.05;;;4.10;;
37341;SDS011;58643;49.052;8.518;2022-07-29T03:19:52;6.25;;;4.65;;
37341;SDS011;58643;49.052;8.518;2022-07-29T03:22:19;8.43;;;4.72;;
37341;SDS011;58643;49.052;8.518;2022-07-29T03:24:45;7.75;;;4.18;;
37341;SDS011;58643;49.052;8.518;2022-07-29T03:27:11;6.97;;;4.55;;
37341;SDS011;58643;49.052;8.518;2022-07-29T03:29:37;5.15;;;4.53;;
37341;SDS011;58643;49.052;8.518;2022-07-29T03:32:03;8.57;;;5.00;;
37341;SDS011;58643;49.052;8.518;2022-07-29T03:34:30;5.65;;;4.53;;
37341;SDS011;58643;49.052;8.518;2022-07-29T03:36:56;7.43;;;4.78;;
37341;SDS011;58643;49.052;8.518;2022-07-29T03:39:23;7.80;;;4.72;;
37341;SDS011;58643;49.052;8.518;2022-07-29T03:41:53;5.88;;;4.65;;
37341;SDS011;58643;49.052;8.518;2022-07-29T03:44:21;6.35;;;4.80;;
37341;SDS011;58643;49.052;8.518;2022-07-29T03:46:49;6.47;;;4.90;;
37341;SDS011;58643;49.052;8.518;2022-07-29T03:49:16;7.38;;;4.88;;
37341;SDS011;58643;49.052;8.518;2022-07-29T03:51:44;6.55;;;5.18;;
37341;SDS011;58643;49.052;8.518;2022-07-29T03:54:10;7.30;;;4.75;;
37341;SDS011;58643;49.052;8.518;2022-07-29T03:56:40;8.98;;;4.90;;
37341;SDS011;58643;49.052;8.518;2022-07-29T03:59:12;5.50;;;4.35;;
37341;SDS011;58643;49.052;8.518;2022-07-29T04:01:39;8.35;;;5.18;;
37341;SDS011;58643;49.052;8.518;2022-07-29T04:04:07;9.45;;;5.30;;
37341;SDS011;58643;49.052;8.518;2022-07-29T04:06:43;8.60;;;4.82;;
37341;SDS011;58643;49.052;8.518;2022-07-29T04:09:10;9.93;;;5.00;;
37341;SDS011;58643;49.052;8.518;2022-07-29T04:11:36;6.78;;;5.03;;
37341;SDS011;58643;49.052;8.518;2022-07-29T04:14:04;8.00;;;4.70;;
37341;SDS011;58643;49.052;8.518;2022-07-29T04:16:30;7.97;;;4.97;;
37341;SDS011;58643;49.052;8.518;2022-07-29T04:18:56;10.70;;;5.20;;
37341;SDS011;58643;49.052;8.518;2022-07-29T04:21:22;7.03;;;4.95;;
37341;SDS011;58643;49.052;8.518;2022-07-29T04:23:47;8.88;;;4.97;;
37341;SDS011;58643;49.052;8.518;2022-07-29T04:26:16;6.45;;;5.05;;
37341;SDS011;58643;49.052;8.518;2022-07-29T04:28:43;13.43;;;5.72;;
37341;SDS011;58643;49.052;8.518;2022-07-29T04:31:09;10.18;;;5.30;;
37341;SDS011;58643;49.052;8.518;2022-07-29T04:33:35;9.75;;;5.00;;
37341;SDS011;58643;49.052;8.518;2022-07-29T04:36:01;8.15;;;5.60;;
37341;SDS011;58643;49.052;8.518;2022-07-29T04:38:26;8.15;;;5.30;;
37341;SDS011;58643;49.052;8.518;2022-07-29T04:40:52;10.10;;;5.25;;
37341;SDS011;58643;49.052;8.518;2022-07-29T04:43:18;8.70;;;5.13;;
37341;SDS011;58643;49.052;8.518;2022-07-29T04:45:43;7.93;;;5.50;;
37341;SDS011;58643;49.052;8.518;2022-07-29T04:48:09;8.75;;;5.15;;
37341;SDS011;58643;49.052;8.518;2022-07-29T04:50:37;8.25;;;5.60;;
37341;SDS011;58643;49.052;8.518;2022-07-29T04:53:03;9.85;;;6.05;;
37341;SDS011;58643;49.052;8.518;2022-07-29T04:55:28;9.82;;;5.65;;
37341;SDS011;58643;49.052;8.518;2022-07-29T04:57:54;9.13;;;5.15;;
37341;SDS011;58643;49.052;8.518;2022-07-29T05:00:20;7.13;;;4.95;;
37341;SDS011;58643;49.052;8.518;2022-07-29T05:02:45;6.75;;;4.60;;
37341;SDS011;58643;49.052;8.518;2022-07-29T05:05:11;7.28;;;5.10;;
37341;SDS011;58643;49.052;8.518;2022-07-29T05:07:36;8.38;;;4.65;;
37341;SDS011;58643;49.052;8.518;2022-07-29T05:10:02;8.57;;;5.57;;
37341;SDS011;58643;49.052;8.518;2022-07-29T05:12:28;8.38;;;4.80;;
37341;SDS011;58643;49.052;8.518;2022-07-29T05:14:54;8.77;;;5.53;;
37341;SDS011;58643;49.052;8.518;2022-07-29T05:17:20;8.27;;;5.43;;
37341;SDS011;58643;49.052;8.518;2022-07-29T05:19:45;7.15;;;5.65;;
37341;SDS011;58643;49.052;8.518;2022-07-29T05:22:11;8.23;;;6.05;;
37341;SDS011;58643;49.052;8.518;2022-07-29T05:24:36;7.47;;;5.90;;
37341;SDS011;58643;49.052;8.518;2022-07-29T05:27:02;9.27;;;6.45;;
37341;SDS011;58643;49.052;8.518;2022-07-29T05:29:28;8.90;;;5.80;;
37341;SDS011;58643;49.052;8.518;2022-07-29T05:31:53;8.82;;;5.43;;
37341;SDS011;58643;49.052;8.518;2022-07-29T05:34:19;9.25;;;5.95;;
37341;SDS011;58643;49.052;8.518;2022-07-29T05:36:45;9.98;;;5.90;;
37341;SDS011;58643;49.052;8.518;2022-07-29T05:39:10;8.85;;;5.60;;
37341;SDS011;58643;49.052;8.518;2022-07-29T05:41:38;10.73;;;5.75;;
37341;SDS011;58643;49.052;8.518;2022-07-29T05:44:04;10.68;;;5.70;;
37341;SDS011;58643;49.052;8.518;2022-07-29T05:46:29;9.20;;;5.47;;
37341;SDS011;58643;49.052;8.518;2022-07-29T05:48:55;7.88;;;6.00;;
37341;SDS011;58643;49.052;8.518;2022-07-29T05:51:21;7.80;;;5.70;;
37341;SDS011;58643;49.052;8.518;2022-07-29T05:53:46;8.93;;;5.53;;
37341;SDS011;58643;49.052;8.518;2022-07-29T05:56:12;10.30;;;5.28;;
37341;SDS011;58643;49.052;8.518;2022-07-29T05:58:37;12.18;;;6.13;;
37341;SDS011;58643;49.052;8.518;2022-07-29T06:01:03;7.68;;;5.72;;
37341;SDS011;58643;49.052;8.518;2022-07-29T06:03:29;11.15;;;6.68;;
37341;SDS011;58643;49.052;8.518;2022-07-29T06:05:55;9.73;;;6.50;;
37341;SDS011;58643;49.052;8.518;2022-07-29T06:08:21;11.07;;;5.88;;
37341;SDS011;58643;49.052;8.518;2022-07-29T06:10:46;10.02;;;5.82;;
37341;SDS011;58643;49.052;8.518;2022-07-29T06:13:12;10.15;;;6.57;;
37341;SDS011;58643;49.052;8.518;2022-07-29T06:15:40;9.50;;;5.90;;
37341;SDS011;58643;49.052;8.518;2022-07-29T06:18:07;12.00;;;5.80;;
37341;SDS011;58643;49.052;8.518;2022-07-29T06:20:34;10.82;;;5.90;;
37341;SDS011;58643;49.052;8.518;2022-07-29T06:23:00;11.45;;;6.03;;
37341;SDS011;58643;49.052;8.518;2022-07-29T06:25:26;9.35;;;5.20;;
37341;SDS011;58643;49.052;8.518;2022-07-29T06:27:54;14.80;;;6.10;;
37341;SDS011;58643;49.052;8.518;2022-07-29T06:30:19;9.93;;;5.20;;
37341;SDS011;58643;49.052;8.518;2022-07-29T06:32:45;8.68;;;5.28;;
37341;SDS011;58643;49.052;8.518;2022-07-29T06:35:11;7.07;;;5.22;;
37341;SDS011;58643;49.052;8.518;2022-07-29T06:37:36;7.85;;;4.60;;
37341;SDS011;58643;49.052;8.518;2022-07-29T06:40:03;9.38;;;5.25;;
37341;SDS011;58643;49.052;8.518;2022-07-29T06:42:47;7.22;;;4.85;;
37341;SDS011;58643;49.052;8.518;2022-07-29T06:45:13;12.23;;;5.30;;
37341;SDS011;58643;49.052;8.518;2022-07-29T06:47:38;8.90;;;5.05;;
37341;SDS011;58643;49.052;8.518;2022-07-29T06:50:04;8.40;;;4.88;;
37341;SDS011;58643;49.052;8.518;2022-07-29T06:52:30;9.48;;;4.97;;
37341;SDS011;58643;49.052;8.518;2022-07-29T06:54:56;9.48;;;4.60;;
37341;SDS011;58643;49.052;8.518;2022-07-29T06:57:22;7.18;;;5.03;;
37341;SDS011;58643;49.052;8.518;2022-07-29T06:59:47;9.32;;;4.95;;
37341;SDS011;58643;49.052;8.518;2022-07-29T07:02:13;9.43;;;4.68;;
37341;SDS011;58643;49.052;8.518;2022-07-29T07:04:39;11.27;;;4.90;;
37341;SDS011;58643;49.052;8.518;2022-07-29T07:07:04;10.45;;;4.38;;
37341;SDS011;58643;49.052;8.518;2022-07-29T07:09:30;10.88;;;5.22;;
37341;SDS011;58643;49.052;8.518;2022-07-29T07:11:56;6.95;;;4.47;;
37341;SDS011;58643;49.052;8.518;2022-07-29T07:14:21;17.10;;;5.35;;
37341;SDS011;58643;49.052;8.518;2022-07-29T07:16:47;12.13;;;5.03;;
37341;SDS011;58643;49.052;8.518;2022-07-29T07:19:12;7.75;;;4.82;;
37341;SDS011;58643;49.052;8.518;2022-07-29T07:21:38;12.07;;;5.28;;
37341;SDS011;58643;49.052;8.518;2022-07-29T07:24:04;9.60;;;4.93;;
37341;SDS011;58643;49.052;8.518;2022-07-29T07:26:30;10.02;;;5.03;;
37341;SDS011;58643;49.052;8.518;2022-07-29T07:28:55;9.30;;;5.00;;
37341;SDS011;58643;49.052;8.518;2022-07-29T07:31:21;14.65;;;5.47;;
37341;SDS011;58643;49.052;8.518;2022-07-29T07:33:47;7.00;;;4.78;;
37341;SDS011;58643;49.052;8.518;2022-07-29T07:36:13;8.98;;;5.10;;
37341;SDS011;58643;49.052;8.518;2022-07-29T07:38:38;9.48;;;5.20;;
37341;SDS011;58643;49.052;8.518;2022-07-29T07:41:04;8.95;;;4.78;;
37341;SDS011;58643;49.052;8.518;2022-07-29T07:43:30;14.57;;;4.80;;
37341;SDS011;58643;49.052;8.518;2022-07-29T07:45:55;8.23;;;4.75;;
37341;SDS011;58643;49.052;8.518;2022-07-29T07:48:22;7.55;;;4.40;;
37341;SDS011;58643;49.052;8.518;2022-07-29T07:50:48;13.73;;;4.68;;
37341;SDS011;58643;49.052;8.518;2022-07-29T07:53:14;10.45;;;4.47;;
37341;SDS011;58643;49.052;8.518;2022-07-29T07:55:43;7.47;;;4.65;;
37341;SDS011;58643;49.052;8.518;2022-07-29T07:58:09;6.47;;;4.78;;
37341;SDS011;58643;49.052;8.518;2022-07-29T08:00:34;9.35;;;4.85;;
37341;SDS011;58643;49.052;8.518;2022-07-29T08:03:00;8.30;;;4.47;;
37341;SDS011;58643;49.052;8.518;2022-07-29T08:05:26;10.75;;;4.35;;
37341;SDS011;58643;49.052;8.518;2022-07-29T08:07:51;5.72;;;4.25;;
37341;SDS011;58643;49.052;8.518;2022-07-29T08:10:17;8.82;;;4.20;;
37341;SDS011;58643;49.052;8.518;2022-07-29T08:13:04;8.07;;;4.45;;
37341;SDS011;58643;49.052;8.518;2022-07-29T08:15:30;10.32;;;4.60;;
37341;SDS011;58643;49.052;8.518;2022-07-29T08:17:57;10.85;;;4.95;;
37341;SDS011;58643;49.052;8.518;2022-07-29T08:20:22;14.48;;;4.70;;
37341;SDS011;58643;49.052;8.518;2022-07-29T08:22:48;7.78;;;3.92;;
37341;SDS011;58643;49.052;8.518;2022-07-29T08:25:14;6.97;;;3.70;;
37341;SDS011;58643;49.052;8.518;2022-07-29T08:27:39;8.75;;;3.85;;
37341;SDS011;58643;49.052;8.518;2022-07-29T08:30:05;5.60;;;3.72;;
37341;SDS011;58643;49.052;8.518;2022-07-29T08:32:31;8.50;;;3.95;;
37341;SDS011;58643;49.052;8.518;2022-07-29T08:34:57;8.25;;;3.60;;
37341;SDS011;58643;49.052;8.518;2022-07-29T08:37:22;10.98;;;3.95;;
37341;SDS011;58643;49.052;8.518;2022-07-29T08:39:48;6.35;;;3.70;;
37341;SDS011;58643;49.052;8.518;2022-07-29T08:42:14;11.88;;;3.65;;
37341;SDS011;58643;49.052;8.518;2022-07-29T08:44:41;11.82;;;3.92;;
37341;SDS011;58643;49.052;8.518;2022-07-29T08:47:07;8.18;;;3.53;;
37341;SDS011;58643;49.052;8.518;2022-07-29T08:49:34;8.10;;;3.25;;
37341;SDS011;58643;49.052;8.518;2022-07-29T08:52:00;5.63;;;3.25;;
37341;SDS011;58643;49.052;8.518;2022-07-29T08:54:27;5.78;;;3.30;;
37341;SDS011;58643;49.052;8.518;2022-07-29T08:56:52;6.03;;;2.97;;
37341;SDS011;58643;49.052;8.518;2022-07-29T08:59:19;8.85;;;3.38;;
37341;SDS011;58643;49.052;8.518;2022-07-29T09:01:47;7.53;;;3.10;;
37341;SDS011;58643;49.052;8.518;2022-07-29T09:04:17;5.88;;;2.78;;
37341;SDS011;58643;49.052;8.518;2022-07-29T09:06:46;9.23;;;3.10;;
37341;SDS011;58643;49.052;8.518;2022-07-29T09:09:13;8.90;;;2.83;;
37341;SDS011;58643;49.052;8.518;2022-07-29T09:11:39;5.07;;;2.80;;
37341;SDS011;58643;49.052;8.518;2022-07-29T09:14:06;7.15;;;3.47;;
37341;SDS011;58643;49.052;8.518;2022-07-29T09:16:44;13.35;;;2.92;;
37341;SDS011;58643;49.052;8.518;2022-07-29T09:21:50;9.07;;;2.90;;
37341;SDS011;58643;49.052;8.518;2022-07-29T09:24:46;7.53;;;3.03;;
37341;SDS011;58643;49.052;8.518;2022-07-29T09:27:19;5.28;;;2.83;;
37341;SDS011;58643;49.052;8.518;2022-07-29T09:32:25;10.45;;;3.50;;
37341;SDS011;58643;49.052;8.518;2022-07-29T09:34:54;9.88;;;3.10;;
37341;SDS011;58643;49.052;8.518;2022-07-29T09:37:41;8.15;;;3.38;;
37341;SDS011;58643;49.052;8.518;2022-07-29T09:42:41;7.20;;;2.70;;
37341;SDS011;58643;49.052;8.518;2022-07-29T09:45:06;6.55;;;2.22;;
37341;SDS011;58643;49.052;8.518;2022-07-29T09:47:45;6.53;;;2.97;;
37341;SDS011;58643;49.052;8.518;2022-07-29T09:50:14;13.45;;;3.47;;
37341;SDS011;58643;49.052;8.518;2022-07-29T09:52:50;10.43;;;3.03;;
37341;SDS011;58643;49.052;8.518;2022-07-29T09:55:17;16.23;;;2.95;;
37341;SDS011;58643;49.052;8.518;2022-07-29T09:57:44;8.95;;;3.00;;
37341;SDS011;58643;49.052;8.518;2022-07-29T10:00:11;7.25;;;2.60;;
37341;SDS011;58643;49.052;8.518;2022-07-29T10:02:43;6.60;;;2.60;;
37341;SDS011;58643;49.052;8.518;2022-07-29T10:05:22;5.22;;;2.75;;
37341;SDS011;58643;49.052;8.518;2022-07-29T10:07:50;5.50;;;2.40;;
37341;SDS011;58643;49.052;8.518;2022-07-29T10:10:23;8.43;;;2.40;;
37341;SDS011;58643;49.052;8.518;2022-07-29T10:12:55;8.77;;;2.67;;
37341;SDS011;58643;49.052;8.518;2022-07-29T10:15:23;5.85;;;3.17;;
37341;SDS011;58643;49.052;8.518;2022-07-29T10:17:50;5.53;;;2.67;;
37341;SDS011;58643;49.052;8.518;2022-07-29T10:20:17;5.85;;;2.40;;
37341;SDS011;58643;49.052;8.518;2022-07-29T10:22:43;5.32;;;2.65;;
37341;SDS011;58643;49.052;8.518;2022-07-29T10:25:11;7.60;;;2.28;;
37341;SDS011;58643;49.052;8.518;2022-07-29T10:27:38;8.50;;;2.50;;
37341;SDS011;58643;49.052;8.518;2022-07-29T10:30:04;5.07;;;2.75;;
37341;SDS011;58643;49.052;8.518;2022-07-29T10:32:39;7.07;;;2.70;;
37341;SDS011;58643;49.052;8.518;2022-07-29T10:41:16;5.68;;;2.45;;
37341;SDS011;58643;49.052;8.518;2022-07-29T10:44:00;3.60;;;2.35;;
37341;SDS011;58643;49.052;8.518;2022-07-29T10:46:38;4.82;;;2.50;;
37341;SDS011;58643;49.052;8.518;2022-07-29T10:49:15;8.18;;;2.50;;
37341;SDS011;58643;49.052;8.518;2022-07-29T10:57:14;3.97;;;2.50;;
37341;SDS011;58643;49.052;8.518;2022-07-29T10:59:40;5.28;;;2.80;;
37341;SDS011;58643;49.052;8.518;2022-07-29T11:10:41;6.10;;;2.67;;
37341;SDS011;58643;49.052;8.518;2022-07-29T11:13:07;8.35;;;2.72;;
37341;SDS011;58643;49.052;8.518;2022-07-29T11:15:53;5.95;;;2.97;;
37341;SDS011;58643;49.052;8.518;2022-07-29T11:18:18;8.55;;;3.00;;
37341;SDS011;58643;49.052;8.518;2022-07-29T11:20:45;7.75;;;2.63;;
37341;SDS011;58643;49.052;8.518;2022-07-29T11:23:19;9.82;;;2.67;;
37341;SDS011;58643;49.052;8.518;2022-07-29T11:31:47;6.15;;;2.75;;
37341;SDS011;58643;49.052;8.518;2022-07-29T11:34:29;13.30;;;3.20;;
37341;SDS011;58643;49.052;8.518;2022-07-29T11:44:53;10.33;;;3.07;;
37341;SDS011;58643;49.052;8.518;2022-07-29T11:47:21;16.83;;;3.53;;
37341;SDS011;58643;49.052;8.518;2022-07-29T11:49:47;5.47;;;2.70;;
37341;SDS011;58643;49.052;8.518;2022-07-29T11:52:15;3.58;;;2.60;;
37341;SDS011;58643;49.052;8.518;2022-07-29T11:54:42;6.47;;;2.70;;
37341;SDS011;58643;49.052;8.518;2022-07-29T11:57:08;4.93;;;2.50;;
37341;SDS011;58643;49.052;8.518;2022-07-29T11:59:41;3.75;;;2.60;;
37341;SDS011;58643;49.052;8.518;2022-07-29T12:02:08;4.75;;;2.50;;
37341;SDS011;58643;49.052;8.518;2022-07-29T12:04:56;11.70;;;2.90;;
37341;SDS011;58643;49.052;8.518;2022-07-29T12:07:28;5.13;;;2.50;;
37341;SDS011;58643;49.052;8.518;2022-07-29T12:09:54;8.02;;;2.88;;
37341;SDS011;58643;49.052;8.518;2022-07-29T12:12:20;3.30;;;2.80;;
37341;SDS011;58643;49.052;8.518;2022-07-29T12:14:46;5.63;;;2.67;;
37341;SDS011;58643;49.052;8.518;2022-07-29T12:17:25;4.43;;;2.63;;
37341;SDS011;58643;49.052;8.518;2022-07-29T12:19:58;7.35;;;3.42;;
37341;SDS011;58643;49.052;8.518;2022-07-29T12:22:35;6.22;;;2.70;;
37341;SDS011;58643;49.052;8.518;2022-07-29T12:25:05;6.00;;;2.60;;
37341;SDS011;58643;49.052;8.518;2022-07-29T12:27:32;5.32;;;2.60;;
37341;SDS011;58643;49.052;8.518;2022-07-29T12:30:03;4.82;;;2.55;;
37341;SDS011;58643;49.052;8.518;2022-07-29T12:32:34;3.60;;;2.47;;
37341;SDS011;58643;49.052;8.518;2022-07-29T12:35:05;5.13;;;2.60;;
37341;SDS011;58643;49.052;8.518;2022-07-29T12:37:37;9.05;;;2.60;;
37341;SDS011;58643;49.052;8.518;2022-07-29T12:40:04;5.25;;;2.88;;
37341;SDS011;58643;49.052;8.518;2022-07-29T12:42:31;7.53;;;2.60;;
37341;SDS011;58643;49.052;8.518;2022-07-29T12:44:57;7.75;;;2.20;;
37341;SDS011;58643;49.052;8.518;2022-07-29T12:47:23;5.68;;;2.30;;
37341;SDS011;58643;49.052;8.518;2022-07-29T12:49:49;7.00;;;2.90;;
37341;SDS011;58643;49.052;8.518;2022-07-29T12:52:33;7.72;;;2.53;;
37341;SDS011;58643;49.052;8.518;2022-07-29T12:55:01;8.98;;;2.33;;
37341;SDS011;58643;49.052;8.518;2022-07-29T12:57:27;5.10;;;2.20;;
37341;SDS011;58643;49.052;8.518;2022-07-29T13:00:09;3.75;;;2.33;;
37341;SDS011;58643;49.052;8.518;2022-07-29T13:02:37;5.97;;;2.20;;
37341;SDS011;58643;49.052;8.518;2022-07-29T13:05:04;4.90;;;2.22;;
37341;SDS011;58643;49.052;8.518;2022-07-29T13:07:32;4.03;;;2.08;;
37341;SDS011;58643;49.052;8.518;2022-07-29T13:12:36;2.13;;;1.52;;
37341;SDS011;58643;49.052;8.518;2022-07-29T13:15:15;4.25;;;1.90;;
37341;SDS011;58643;49.052;8.518;2022-07-29T13:17:42;3.15;;;2.00;;
37341;SDS011;58643;49.052;8.518;2022-07-29T13:20:09;3.15;;;1.60;;
37341;SDS011;58643;49.052;8.518;2022-07-29T13:22:39;3.97;;;1.83;;
37341;SDS011;58643;49.052;8.518;2022-07-29T13:25:07;6.57;;;1.83;;
37341;SDS011;58643;49.052;8.518;2022-07-29T13:27:35;4.00;;;1.83;;
37341;SDS011;58643;49.052;8.518;2022-07-29T13:30:04;4.97;;;1.65;;
37341;SDS011;58643;49.052;8.518;2022-07-29T13:32:32;6.38;;;1.92;;
37341;SDS011;58643;49.052;8.518;2022-07-29T13:35:00;3.72;;;1.83;;
37341;SDS011;58643;49.052;8.518;2022-07-29T13:37:27;2.55;;;1.70;;
37341;SDS011;58643;49.052;8.518;2022-07-29T13:39:54;9.35;;;2.20;;
37341;SDS011;58643;49.052;8.518;2022-07-29T13:42:24;4.47;;;2.22;;
37341;SDS011;58643;49.052;8.518;2022-07-29T13:44:49;6.72;;;1.65;;
37341;SDS011;58643;49.052;8.518;2022-07-29T13:47:16;3.50;;;2.20;;
37341;SDS011;58643;49.052;8.518;2022-07-29T13:49:46;6.13;;;1.50;;
37341;SDS011;58643;49.052;8.518;2022-07-29T13:52:12;3.15;;;1.70;;
37341;SDS011;58643;49.052;8.518;2022-07-29T13:54:37;5.15;;;1.73;;
37341;SDS011;58643;49.052;8.518;2022-07-29T13:57:03;4.13;;;1.58;;
37341;SDS011;58643;49.052;8.518;2022-07-29T13:59:29;10.07;;;1.50;;
37341;SDS011;58643;49.052;8.518;2022-07-29T14:01:55;4.45;;;1.65;;
37341;SDS011;58643;49.052;8.518;2022-07-29T14:04:21;4.40;;;1.50;;
37341;SDS011;58643;49.052;8.518;2022-07-29T14:06:48;4.60;;;1.75;;
37341;SDS011;58643;49.052;8.518;2022-07-29T14:09:14;9.02;;;1.60;;
37341;SDS011;58643;49.052;8.518;2022-07-29T14:11:40;3.65;;;1.52;;
37341;SDS011;58643;49.052;8.518;2022-07-29T14:14:05;3.15;;;1.50;;
37341;SDS011;58643;49.052;8.518;2022-07-29T14:16:31;6.43;;;1.73;;
37341;SDS011;58643;49.052;8.518;2022-07-29T14:18:57;4.07;;;1.60;;
37341;SDS011;58643;49.052;8.518;2022-07-29T14:21:22;9.40;;;2.15;;
37341;SDS011;58643;49.052;8.518;2022-07-29T14:23:48;2.92;;;1.25;;
37341;SDS011;58643;49.052;8.518;2022-07-29T14:26:14;8.18;;;1.55;;
37341;SDS011;58643;49.052;8.518;2022-07-29T14:28:39;7.85;;;1.60;;
37341;SDS011;58643;49.052;8.518;2022-07-29T14:31:05;5.57;;;1.30;;
37341;SDS011;58643;49.052;8.518;2022-07-29T14:33:30;5.88;;;1.60;;
37341;SDS011;58643;49.052;8.518;2022-07-29T14:35:56;4.05;;;1.70;;
37341;SDS011;58643;49.052;8.518;2022-07-29T14:38:22;4.80;;;1.65;;
37341;SDS011;58643;49.052;8.518;2022-07-29T14:40:47;9.38;;;1.73;;
37341;SDS011;58643;49.052;8.518;2022-07-29T14:43:13;4.10;;;1.58;;
37341;SDS011;58643;49.052;8.518;2022-07-29T14:45:40;2.83;;;1.27;;
37341;SDS011;58643;49.052;8.518;2022-07-29T14:48:06;6.97;;;1.60;;
37341;SDS011;58643;49.052;8.518;2022-07-29T14:50:32;3.70;;;1.45;;
37341;SDS011;58643;49.052;8.518;2022-07-29T14:52:58;8.10;;;2.08;;
37341;SDS011;58643;49.052;8.518;2022-07-29T14:55:25;7.72;;;1.60;;
37341;SDS011;58643;49.052;8.518;2022-07-29T14:57:51;5.40;;;1.55;;
37341;SDS011;58643;49.052;8.518;2022-07-29T15:00:16;4.38;;;1.40;;
37341;SDS011;58643;49.052;8.518;2022-07-29T15:02:42;4.25;;;1.33;;
37341;SDS011;58643;49.052;8.518;2022-07-29T15:05:08;4.10;;;1.55;;
37341;SDS011;58643;49.052;8.518;2022-07-29T15:07:34;6.15;;;1.40;;
37341;SDS011;58643;49.052;8.518;2022-07-29T15:09:59;4.20;;;1.42;;
37341;SDS011;58643;49.052;8.518;2022-07-29T15:12:25;6.70;;;1.73;;
37341;SDS011;58643;49.052;8.518;2022-07-29T15:14:51;3.58;;;2.03;;
37341;SDS011;58643;49.052;8.518;2022-07-29T15:17:16;5.68;;;1.33;;
37341;SDS011;58643;49.052;8.518;2022-07-29T15:19:42;3.47;;;1.67;;
37341;SDS011;58643;49.052;8.518;2022-07-29T15:22:09;5.07;;;1.60;;
37341;SDS011;58643;49.052;8.518;2022-07-29T15:24:42;5.78;;;1.38;;
37341;SDS011;58643;49.052;8.518;2022-07-29T15:27:09;5.13;;;1.42;;
37341;SDS011;58643;49.052;8.518;2022-07-29T15:29:39;3.40;;;1.50;;
37341;SDS011;58643;49.052;8.518;2022-07-29T15:32:05;3.47;;;1.40;;
37341;SDS011;58643;49.052;8.518;2022-07-29T15:34:31;5.45;;;1.50;;
37341;SDS011;58643;49.052;8.518;2022-07-29T15:36:56;2.67;;;1.42;;
37341;SDS011;58643;49.052;8.518;2022-07-29T15:39:22;5.95;;;1.60;;
37341;SDS011;58643;49.052;8.518;2022-07-29T15:41:48;4.07;;;1.38;;
37341;SDS011;58643;49.052;8.518;2022-07-29T15:44:14;4.32;;;1.48;;
37341;SDS011;58643;49.052;8.518;2022-07-29T15:46:40;4.85;;;1.40;;
37341;SDS011;58643;49.052;8.518;2022-07-29T15:49:24;3.10;;;1.30;;
37341;SDS011;58643;49.052;8.518;2022-07-29T15:51:55;5.22;;;1.48;;
37341;SDS011;58643;49.052;8.518;2022-07-29T15:54:25;3.75;;;1.20;;